Hundvaag 1 weather for Dec 1993
Month no. 78
Obs.
Da.
Temp. Dew Point Precip. Wind
Speed
Wind gusts Cloud cover Press. Humidity Wind dir. Sunny OPT
01.12.1993 -0,2   0,0                
02.12.1993 1,4   6,2                
03.12.1993 2,3   6,6                
04.12.1993 6,9   23,8                
05.12.1993 4,7   12,0                
06.12.1993 4,6   11,1                
07.12.1993 5,1   31,2                
08.12.1993 1,8   3,5                
09.12.1993 2,1   1,0                
10.12.1993 0,7   0,0                
11.12.1993 1,7   2,0             1  
12.12.1993 2,3   1,5             1  
13.12.1993 -1,8   0,0             1  
14.12.1993 -5,3   0,0             1  
15.12.1993 2,0   13,1                
16.12.1993 3,0   6,0                
17.12.1993 1,8   1,7                
18.12.1993 4,3   0,0                
19.12.1993 7,2   47,1                
20.12.1993 -0,7   0,0                
21.12.1993 2,9   19,3                
22.12.1993 -1,7   6,0                
23.12.1993 -1,5   5,6                
24.12.1993 -5,5   0,0             1  
25.12.1993 -0,4   0,0                
26.12.1993 2,3   0,0             1  
27.12.1993 -5,2   0,0             1  
28.12.1993 -2,0   0,0                
29.12.1993 -0,8   0,0                
30.12.1993 1,9   0,0                
31.12.1993 1,0   0,0             1  
Avrg/Sum 1,1   197,7             8